createdAt,value
2018-09-25T00:01:01.466Z,7.33
2018-09-25T00:03:35.861Z,5.97
2018-09-25T00:06:10.174Z,6.25
2018-09-25T00:08:44.369Z,6.58
2018-09-25T00:11:18.569Z,5.23
2018-09-25T00:13:52.758Z,5.67
2018-09-25T00:16:27.010Z,5.95
2018-09-25T00:19:01.109Z,6.10
2018-09-25T00:21:35.294Z,5.17
2018-09-25T00:24:09.347Z,6.27
2018-09-25T00:26:43.574Z,6.22
2018-09-25T00:29:17.790Z,5.72
2018-09-25T00:31:52.048Z,6.60
2018-09-25T00:34:26.418Z,5.90
2018-09-25T00:37:00.576Z,5.78
2018-09-25T00:39:34.743Z,6.42
2018-09-25T00:42:09.009Z,6.17
2018-09-25T00:44:43.342Z,5.85
2018-09-25T00:47:17.502Z,6.60
2018-09-25T00:49:51.737Z,6.83
2018-09-25T00:52:25.890Z,6.70
2018-09-25T00:54:59.827Z,6.40
2018-09-25T00:57:34.004Z,6.57
2018-09-25T01:00:08.148Z,6.53
2018-09-25T01:02:42.480Z,5.75
2018-09-25T01:05:16.525Z,6.20
2018-09-25T01:07:50.705Z,5.95
2018-09-25T01:10:24.833Z,5.50
2018-09-25T01:12:59.013Z,6.37
2018-09-25T01:15:33.322Z,7.42
2018-09-25T01:18:07.378Z,6.70
2018-09-25T01:20:41.594Z,6.50
2018-09-25T01:23:15.646Z,6.78
2018-09-25T01:25:49.794Z,6.95
2018-09-25T01:28:24.142Z,5.90
2018-09-25T01:30:58.344Z,6.27
2018-09-25T01:33:32.504Z,5.97
2018-09-25T01:36:06.669Z,6.92
2018-09-25T01:38:40.789Z,8.05
2018-09-25T01:41:15.302Z,6.20
2018-09-25T01:43:49.638Z,7.12
2018-09-25T01:46:23.950Z,6.37
2018-09-25T01:48:58.185Z,6.97
2018-09-25T01:51:32.338Z,6.17
2018-09-25T01:54:06.661Z,8.60
2018-09-25T01:56:40.866Z,6.50
2018-09-25T01:59:15.121Z,7.25
2018-09-25T02:01:49.308Z,6.62
2018-09-25T02:04:23.639Z,6.97
2018-09-25T02:06:57.774Z,6.42
2018-09-25T02:09:32.092Z,6.92
2018-09-25T02:12:06.154Z,6.75
2018-09-25T02:14:40.351Z,7.40
2018-09-25T02:17:14.521Z,7.10
2018-09-25T02:19:48.750Z,6.65
2018-09-25T02:22:22.991Z,7.45
2018-09-25T02:24:57.141Z,8.38
2018-09-25T02:27:31.383Z,6.85
2018-09-25T02:30:05.521Z,5.67
2018-09-25T02:32:39.854Z,7.15
2018-09-25T02:35:14.010Z,6.40
2018-09-25T02:37:48.311Z,7.67
2018-09-25T02:40:22.330Z,6.78
2018-09-25T02:42:56.533Z,7.45
2018-09-25T02:45:30.690Z,6.12
2018-09-25T02:48:05.020Z,6.95
2018-09-25T02:50:39.150Z,6.75
2018-09-25T02:53:13.413Z,6.03
2018-09-25T02:55:47.588Z,6.20
2018-09-25T02:58:21.978Z,6.00
2018-09-25T03:00:55.911Z,6.85
2018-09-25T03:03:30.289Z,7.37
2018-09-25T03:06:04.565Z,6.77
2018-09-25T03:08:38.850Z,7.00
2018-09-25T03:11:13.109Z,7.00
2018-09-25T03:13:47.069Z,5.92
2018-09-25T03:16:21.158Z,7.12
2018-09-25T03:18:55.257Z,6.70
2018-09-25T03:21:29.359Z,7.15
2018-09-25T03:24:03.757Z,6.60
2018-09-25T03:26:37.922Z,6.62
2018-09-25T03:29:12.252Z,6.75
2018-09-25T03:31:46.351Z,6.78
2018-09-25T03:34:20.573Z,6.78
2018-09-25T03:36:54.609Z,7.03
2018-09-25T03:39:28.745Z,7.37
2018-09-25T03:42:02.934Z,8.18
2018-09-25T03:44:37.034Z,6.90
2018-09-25T03:47:11.223Z,7.47
2018-09-25T03:49:45.510Z,6.42
2018-09-25T03:52:19.878Z,6.33
2018-09-25T03:54:54.122Z,6.92
2018-09-25T03:57:28.031Z,7.60
2018-09-25T04:00:02.327Z,6.95
2018-09-25T04:02:36.488Z,6.87
2018-09-25T04:05:10.812Z,7.55
2018-09-25T04:07:45.002Z,7.30
2018-09-25T04:10:19.161Z,7.72
2018-09-25T04:12:53.329Z,6.50
2018-09-25T04:15:27.614Z,6.58
2018-09-25T04:18:01.806Z,5.90
2018-09-25T04:20:36.002Z,6.75
2018-09-25T04:23:10.052Z,7.20
2018-09-25T04:25:44.230Z,7.30
2018-09-25T04:28:18.330Z,6.20
2018-09-25T04:30:52.739Z,6.90
2018-09-25T04:33:26.801Z,6.78
2018-09-25T04:36:00.945Z,7.53
2018-09-25T04:38:34.982Z,7.90
2018-09-25T04:41:09.278Z,6.97
2018-09-25T04:43:43.230Z,6.60
2018-09-25T04:46:17.430Z,6.55
2018-09-25T04:48:51.697Z,6.47
2018-09-25T04:51:25.910Z,6.05
2018-09-25T04:54:00.111Z,8.23
2018-09-25T04:56:34.418Z,7.43
2018-09-25T04:59:08.898Z,6.80
2018-09-25T05:01:43.129Z,6.62
2018-09-25T05:04:17.430Z,6.97
2018-09-25T05:06:51.674Z,6.90
2018-09-25T05:09:26.005Z,8.53
2018-09-25T05:12:00.435Z,6.70
2018-09-25T05:14:34.472Z,7.20
2018-09-25T05:17:08.877Z,7.30
2018-09-25T05:19:42.895Z,7.75
2018-09-25T05:22:17.189Z,7.08
2018-09-25T05:24:51.310Z,6.93
2018-09-25T05:27:25.509Z,7.30
2018-09-25T05:29:59.544Z,8.18
2018-09-25T05:32:33.705Z,6.97
2018-09-25T05:35:07.846Z,7.70
2018-09-25T05:37:42.143Z,7.40
2018-09-25T05:40:16.251Z,7.62
2018-09-25T05:42:50.446Z,7.67
2018-09-25T05:45:24.630Z,8.05
2018-09-25T05:47:58.887Z,7.70
2018-09-25T05:50:33.294Z,7.28
2018-09-25T05:53:07.625Z,7.67
2018-09-25T05:55:41.700Z,7.30
2018-09-25T05:58:15.822Z,7.72
2018-09-25T06:00:49.878Z,7.40
2018-09-25T06:03:24.225Z,7.42
2018-09-25T06:05:58.461Z,7.33
2018-09-25T06:08:32.682Z,7.85
2018-09-25T06:11:06.779Z,7.47
2018-09-25T06:13:40.929Z,8.38
2018-09-25T06:16:15.129Z,7.77
2018-09-25T06:18:49.457Z,7.55
2018-09-25T06:21:23.586Z,7.60
2018-09-25T06:23:57.737Z,7.37
2018-09-25T06:26:31.822Z,6.90
2018-09-25T06:29:06.022Z,7.75
2018-09-25T06:31:40.079Z,8.43
2018-09-25T06:34:14.270Z,8.27
2018-09-25T06:36:48.414Z,6.83
2018-09-25T06:39:22.522Z,8.03
2018-09-25T06:41:56.734Z,8.50
2018-09-25T06:44:30.937Z,8.43
2018-09-25T06:47:05.186Z,8.30
2018-09-25T06:49:39.473Z,8.50
2018-09-25T06:52:13.713Z,7.80
2018-09-25T06:54:48.000Z,8.95
2018-09-25T06:57:22.186Z,7.15
2018-09-25T06:59:56.492Z,8.40
2018-09-25T07:02:30.675Z,7.85
2018-09-25T07:05:04.895Z,9.38
2018-09-25T07:07:39.039Z,9.78
2018-09-25T07:10:13.457Z,7.70
2018-09-25T07:12:47.470Z,7.83
2018-09-25T07:15:21.614Z,8.88
2018-09-25T07:17:55.655Z,8.33
2018-09-25T07:20:29.721Z,7.53
2018-09-25T07:23:03.802Z,7.85
2018-09-25T07:25:38.191Z,7.55
2018-09-25T07:28:12.334Z,7.95
2018-09-25T07:30:46.497Z,7.78
2018-09-25T07:33:20.781Z,8.23
2018-09-25T07:35:54.899Z,7.10
2018-09-25T07:38:29.186Z,6.50
2018-09-25T07:41:03.566Z,8.75
2018-09-25T07:43:37.677Z,8.85
2018-09-25T07:46:11.958Z,7.37
2018-09-25T07:48:46.249Z,8.83
2018-09-25T07:51:20.240Z,8.23
2018-09-25T07:53:54.560Z,9.35
2018-09-25T07:56:28.502Z,9.33
2018-09-25T07:59:02.797Z,7.92
2018-09-25T08:01:36.817Z,6.53
2018-09-25T08:04:11.278Z,7.75
2018-09-25T08:06:45.330Z,9.33
2018-09-25T08:09:19.549Z,8.70
2018-09-25T08:11:53.834Z,8.45
2018-09-25T08:14:28.084Z,7.83
2018-09-25T08:17:02.202Z,9.00
2018-09-25T08:19:36.581Z,7.05
2018-09-25T08:22:10.806Z,8.83
2018-09-25T08:24:45.274Z,8.93
2018-09-25T08:27:19.634Z,7.90
2018-09-25T08:29:54.004Z,7.58
2018-09-25T08:32:27.942Z,7.83
2018-09-25T08:35:02.317Z,8.23
2018-09-25T08:37:36.268Z,7.92
2018-09-25T08:40:10.410Z,7.63
2018-09-25T08:42:44.437Z,9.65
2018-09-25T08:45:18.626Z,8.58
2018-09-25T08:47:52.736Z,7.93
2018-09-25T08:50:27.018Z,7.78
2018-09-25T08:53:01.042Z,7.65
2018-09-25T08:55:35.354Z,8.08
2018-09-25T08:58:09.577Z,8.50
2018-09-25T09:00:43.659Z,7.00
2018-09-25T09:03:17.914Z,7.22
2018-09-25T09:05:52.114Z,7.85
2018-09-25T09:08:26.091Z,6.92
2018-09-25T09:11:00.297Z,7.53
2018-09-25T09:13:34.264Z,7.83
2018-09-25T09:16:08.445Z,6.63
2018-09-25T09:18:42.598Z,7.08
2018-09-25T09:21:16.926Z,8.10
2018-09-25T09:23:51.186Z,8.35
2018-09-25T09:26:25.347Z,7.53
2018-09-25T09:28:59.426Z,7.93
2018-09-25T09:31:33.786Z,8.25
2018-09-25T09:34:07.913Z,8.03
2018-09-25T09:36:42.053Z,8.20
2018-09-25T09:39:16.116Z,7.58
2018-09-25T09:41:50.689Z,7.30
2018-09-25T09:44:24.574Z,7.35
2018-09-25T09:46:58.843Z,7.62
2018-09-25T09:49:32.957Z,6.07
2018-09-25T09:52:07.109Z,7.95
2018-09-25T09:54:41.358Z,7.58
2018-09-25T09:57:15.597Z,6.92
2018-09-25T09:59:49.860Z,8.68
2018-09-25T10:02:24.062Z,8.30
2018-09-25T10:04:58.131Z,9.23
2018-09-25T10:07:32.235Z,7.72
2018-09-25T10:10:06.182Z,6.97
2018-09-25T10:12:40.426Z,6.90
2018-09-25T10:15:14.848Z,7.97
2018-09-25T10:17:49.022Z,8.00
2018-09-25T10:20:22.875Z,6.87
2018-09-25T10:22:56.929Z,7.85
2018-09-25T10:25:31.136Z,6.05
2018-09-25T10:28:05.439Z,9.23
2018-09-25T10:30:39.473Z,8.10
2018-09-25T10:33:13.797Z,7.80
2018-09-25T10:35:47.952Z,8.90
2018-09-25T10:38:22.145Z,9.08
2018-09-25T10:40:56.329Z,8.05
2018-09-25T10:43:30.520Z,6.47
2018-09-25T10:46:04.609Z,7.08
2018-09-25T10:48:38.660Z,7.58
2018-09-25T10:51:12.898Z,7.53
2018-09-25T10:53:47.112Z,7.28
2018-09-25T10:56:21.374Z,7.35
2018-09-25T10:58:55.590Z,6.67
2018-09-25T11:01:29.841Z,7.30
2018-09-25T11:04:03.901Z,5.85
2018-09-25T11:06:38.233Z,7.03
2018-09-25T11:09:14.058Z,7.78
2018-09-25T11:11:48.786Z,6.90
2018-09-25T11:14:23.207Z,8.05
2018-09-25T11:16:57.435Z,6.23
2018-09-25T11:19:31.590Z,8.23
2018-09-25T11:22:05.841Z,6.95
2018-09-25T11:24:39.909Z,6.20
2018-09-25T11:27:14.129Z,7.00
2018-09-25T11:29:48.305Z,7.47
2018-09-25T11:32:22.522Z,6.50
2018-09-25T11:34:56.832Z,6.80
2018-09-25T11:37:31.103Z,7.03
2018-09-25T11:40:05.234Z,5.87
2018-09-25T11:42:39.369Z,6.83
2018-09-25T11:45:13.770Z,6.12
2018-09-25T11:47:47.933Z,6.90
2018-09-25T11:50:21.958Z,5.97
2018-09-25T11:52:56.276Z,5.80
2018-09-25T11:55:30.378Z,7.30
2018-09-25T11:58:04.524Z,6.65
2018-09-25T12:00:38.590Z,6.92
2018-09-25T12:03:12.879Z,6.30
2018-09-25T12:05:47.172Z,6.85
2018-09-25T12:08:21.482Z,6.67
2018-09-25T12:10:55.750Z,5.58
2018-09-25T12:13:30.094Z,6.40
2018-09-25T12:16:04.618Z,6.17
2018-09-25T12:18:38.588Z,6.87
2018-09-25T12:21:12.950Z,6.30
2018-09-25T12:23:47.100Z,7.30
2018-09-25T12:26:21.461Z,6.30
2018-09-25T12:28:55.790Z,6.05
2018-09-25T12:31:29.914Z,5.37
2018-09-25T12:34:04.162Z,5.65
2018-09-25T12:36:38.253Z,7.17
2018-09-25T12:39:13.694Z,5.15
2018-09-25T12:41:47.893Z,5.83
2018-09-25T12:44:21.945Z,5.95
2018-09-25T12:46:56.410Z,5.83
2018-09-25T12:49:30.458Z,6.03
2018-09-25T12:52:04.607Z,6.20
2018-09-25T12:54:38.673Z,6.03
2018-09-25T12:57:12.773Z,6.25
2018-09-25T12:59:46.837Z,5.33
2018-09-25T13:02:20.854Z,5.42
2018-09-25T13:04:55.270Z,4.97
2018-09-25T13:07:29.646Z,5.72
2018-09-25T13:10:03.926Z,5.83
2018-09-25T13:12:38.062Z,6.10
2018-09-25T13:15:12.142Z,6.15
2018-09-25T13:17:46.493Z,5.20
2018-09-25T13:20:20.722Z,5.53
2018-09-25T13:22:54.781Z,5.12
2018-09-25T13:25:28.837Z,6.00
2018-09-25T13:28:03.240Z,5.05
2018-09-25T13:30:37.349Z,6.10
2018-09-25T13:33:11.645Z,5.00
2018-09-25T13:35:46.012Z,5.87
2018-09-25T13:38:20.150Z,5.30
2018-09-25T13:40:54.137Z,5.75
2018-09-25T13:43:28.201Z,5.37
2018-09-25T13:46:02.340Z,5.72
2018-09-25T13:48:36.332Z,6.28
2018-09-25T13:51:10.586Z,4.83
2018-09-25T13:53:44.619Z,4.95
2018-09-25T13:56:18.889Z,5.62
2018-09-25T13:58:53.128Z,6.00
2018-09-25T14:01:27.461Z,5.50
2018-09-25T14:04:01.603Z,5.85
2018-09-25T14:06:35.873Z,5.62
2018-09-25T14:09:12.221Z,5.53
2018-09-25T14:11:46.251Z,5.72
2018-09-25T14:14:20.467Z,4.72
2018-09-25T14:16:54.685Z,5.07
2018-09-25T14:19:29.006Z,4.67
2018-09-25T14:22:03.417Z,5.45
2018-09-25T14:24:37.682Z,5.55
2018-09-25T14:27:12.007Z,4.85
2018-09-25T14:29:46.090Z,5.20
2018-09-25T14:32:20.374Z,4.58
2018-09-25T14:34:54.639Z,5.50
2018-09-25T14:37:28.951Z,4.47
2018-09-25T14:40:03.216Z,5.37
2018-09-25T14:42:37.766Z,5.05
2018-09-25T14:45:12.086Z,4.72
2018-09-25T14:47:46.273Z,5.27
2018-09-25T14:50:20.657Z,4.58
2018-09-25T14:52:54.914Z,4.45
2018-09-25T14:55:29.134Z,4.83
2018-09-25T14:58:03.338Z,4.50
2018-09-25T15:00:37.414Z,4.70
2018-09-25T15:03:11.394Z,4.62
2018-09-25T15:05:45.676Z,5.10
2018-09-25T15:08:19.866Z,4.95
2018-09-25T15:10:54.013Z,5.25
2018-09-25T15:13:28.176Z,4.83
2018-09-25T15:16:02.253Z,4.83
2018-09-25T15:18:36.206Z,5.33
2018-09-25T15:21:10.590Z,5.35
2018-09-25T15:23:44.725Z,4.87
2018-09-25T15:26:19.117Z,5.42
2018-09-25T15:28:53.433Z,4.60
2018-09-25T15:31:27.424Z,4.28
2018-09-25T15:34:01.724Z,4.58
2018-09-25T15:36:35.965Z,5.35
2018-09-25T15:39:11.886Z,4.40
2018-09-25T15:41:46.241Z,4.40
2018-09-25T15:44:20.651Z,4.70
2018-09-25T15:46:54.654Z,4.30
2018-09-25T15:49:28.630Z,4.90
2018-09-25T15:52:02.756Z,4.55
2018-09-25T15:54:43.975Z,4.78
2018-09-25T15:57:18.266Z,5.40
2018-09-25T15:59:52.425Z,4.73
2018-09-25T16:02:26.661Z,5.17
2018-09-25T16:05:01.037Z,4.58
2018-09-25T16:07:35.312Z,5.57
2018-09-25T16:10:09.546Z,4.70
2018-09-25T16:12:43.777Z,4.53
2018-09-25T16:15:17.750Z,4.90
2018-09-25T16:17:51.937Z,5.12
2018-09-25T16:20:26.162Z,4.90
2018-09-25T16:23:00.171Z,4.53
2018-09-25T16:25:34.209Z,5.17
2018-09-25T16:28:08.470Z,4.35
2018-09-25T16:30:42.754Z,5.40
2018-09-25T16:33:17.055Z,5.03
2018-09-25T16:35:51.314Z,4.97
2018-09-25T16:38:25.562Z,5.15
2018-09-25T16:40:59.692Z,5.20
2018-09-25T16:43:33.810Z,5.03
2018-09-25T16:46:07.895Z,4.60
2018-09-25T16:48:42.134Z,4.67
2018-09-25T16:51:16.325Z,4.87
2018-09-25T16:53:50.735Z,4.87
2018-09-25T16:56:25.130Z,4.85
2018-09-25T16:58:59.482Z,3.98
2018-09-25T17:01:33.706Z,4.33
2018-09-25T17:04:07.996Z,5.83
2018-09-25T17:06:42.401Z,5.53
2018-09-25T17:09:16.658Z,5.20
2018-09-25T17:11:50.884Z,4.80
2018-09-25T17:14:25.115Z,5.25
2018-09-25T17:16:59.430Z,4.83
2018-09-25T17:19:33.678Z,4.65
2018-09-25T17:22:07.905Z,5.53
2018-09-25T17:24:42.297Z,5.00
2018-09-25T17:27:16.405Z,4.53
2018-09-25T17:29:50.666Z,5.65
2018-09-25T17:32:24.805Z,4.45
2018-09-25T17:34:59.162Z,4.53
2018-09-25T17:37:33.358Z,4.22
2018-09-25T17:40:07.460Z,5.12
2018-09-25T17:42:41.794Z,5.00
2018-09-25T17:45:15.870Z,5.00
2018-09-25T17:47:50.270Z,5.87
2018-09-25T17:50:24.356Z,5.47
2018-09-25T17:52:58.610Z,5.12
2018-09-25T17:55:32.997Z,4.75
2018-09-25T17:58:07.110Z,5.40
2018-09-25T18:00:41.382Z,5.60
2018-09-25T18:03:15.461Z,4.83
2018-09-25T18:05:49.668Z,5.03
2018-09-25T18:08:24.176Z,5.50
2018-09-25T18:10:58.245Z,4.60
2018-09-25T18:13:32.382Z,5.42
2018-09-25T18:16:06.630Z,6.40
2018-09-25T18:18:40.857Z,5.45
2018-09-25T18:21:15.179Z,5.25
2018-09-25T18:23:49.619Z,5.87
2018-09-25T18:26:23.954Z,5.50
2018-09-25T18:28:58.199Z,6.63
2018-09-25T18:31:32.471Z,5.80
2018-09-25T18:34:06.739Z,6.05
2018-09-25T18:36:41.076Z,5.60
2018-09-25T18:39:15.162Z,5.55
2018-09-25T18:41:49.427Z,5.08
2018-09-25T18:44:23.718Z,6.58
2018-09-25T18:46:58.049Z,5.95
2018-09-25T18:49:32.314Z,6.03
2018-09-25T18:52:06.495Z,5.25
2018-09-25T18:54:40.714Z,6.08
2018-09-25T18:57:15.000Z,5.60
2018-09-25T18:59:49.033Z,5.85
2018-09-25T19:02:23.314Z,6.83
2018-09-25T19:04:57.580Z,6.03
2018-09-25T19:07:31.590Z,6.78
2018-09-25T19:10:05.769Z,6.42
2018-09-25T19:12:40.014Z,6.75
2018-09-25T19:15:14.320Z,5.37
2018-09-25T19:17:48.471Z,6.15
2018-09-25T19:20:22.740Z,6.05
2018-09-25T19:22:56.898Z,5.50
2018-09-25T19:25:31.219Z,6.22
2018-09-25T19:28:05.518Z,6.10
2018-09-25T19:30:39.738Z,7.10
2018-09-25T19:33:13.845Z,6.05
2018-09-25T19:35:48.066Z,6.37
2018-09-25T19:38:22.246Z,5.73
2018-09-25T19:40:56.409Z,6.78
2018-09-25T19:43:30.494Z,5.87
2018-09-25T19:46:04.978Z,6.05
2018-09-25T19:48:39.162Z,6.25
2018-09-25T19:51:13.410Z,5.75
2018-09-25T19:53:47.892Z,5.90
2018-09-25T19:56:22.387Z,7.05
2018-09-25T19:58:56.569Z,6.47
2018-09-25T20:01:30.776Z,5.83
2018-09-25T20:04:04.900Z,6.53
2018-09-25T20:06:39.086Z,5.97
2018-09-25T20:09:14.596Z,5.90
2018-09-25T20:11:48.773Z,5.90
2018-09-25T20:14:23.055Z,6.33
2018-09-25T20:16:57.247Z,6.03
2018-09-25T20:19:31.772Z,5.80
2018-09-25T20:22:05.767Z,5.70
2018-09-25T20:24:39.964Z,5.40
2018-09-25T20:27:14.046Z,5.92
2018-09-25T20:29:48.387Z,6.17
2018-09-25T20:32:22.616Z,5.20
2018-09-25T20:34:56.677Z,5.58
2018-09-25T20:37:31.060Z,5.55
2018-09-25T20:40:05.449Z,5.83
2018-09-25T20:42:39.613Z,5.62
2018-09-25T20:45:14.071Z,5.17
2018-09-25T20:47:48.394Z,5.00
2018-09-25T20:50:22.594Z,4.93
2018-09-25T20:52:56.834Z,5.90
2018-09-25T20:55:31.156Z,5.30
2018-09-25T20:58:05.169Z,5.75
2018-09-25T21:00:39.390Z,6.25
2018-09-25T21:03:13.697Z,6.92
2018-09-25T21:05:47.849Z,5.60
2018-09-25T21:08:22.150Z,6.45
2018-09-25T21:10:56.132Z,5.00
2018-09-25T21:13:30.462Z,6.45
2018-09-25T21:16:04.410Z,5.78
2018-09-25T21:18:38.575Z,6.03
2018-09-25T21:21:12.829Z,5.45
2018-09-25T21:23:47.030Z,6.78
2018-09-25T21:26:21.281Z,5.27
2018-09-25T21:28:55.407Z,6.92
2018-09-25T21:31:29.749Z,5.33
2018-09-25T21:34:03.800Z,5.78
2018-09-25T21:36:38.018Z,6.25
2018-09-25T21:39:14.658Z,6.90
2018-09-25T21:41:49.121Z,7.08
2018-09-25T21:44:23.173Z,6.37
2018-09-25T21:46:57.414Z,6.42
2018-09-25T21:49:31.596Z,5.78
2018-09-25T21:52:05.716Z,6.42
2018-09-25T21:54:39.791Z,5.42
2018-09-25T21:57:14.384Z,6.65
2018-09-25T21:59:48.347Z,6.53
2018-09-25T22:02:22.442Z,5.22
2018-09-25T22:04:56.774Z,6.15
2018-09-25T22:07:31.125Z,6.40
2018-09-25T22:10:05.465Z,6.90
2018-09-25T22:12:39.885Z,5.92
2018-09-25T22:15:14.130Z,6.42
2018-09-25T22:17:48.331Z,6.05
2018-09-25T22:20:22.487Z,5.85
2018-09-25T22:22:56.592Z,6.23
2018-09-25T22:25:30.618Z,6.58
2018-09-25T22:28:04.803Z,5.33
2018-09-25T22:30:39.079Z,6.30
2018-09-25T22:33:13.185Z,6.58
2018-09-25T22:35:47.310Z,5.97
2018-09-25T22:38:21.498Z,5.80
2018-09-25T22:40:55.769Z,7.53
2018-09-25T22:43:29.766Z,6.37
2018-09-25T22:46:03.953Z,6.10
2018-09-25T22:48:38.192Z,6.45
2018-09-25T22:51:12.482Z,5.72
2018-09-25T22:53:46.583Z,6.03
2018-09-25T22:56:20.677Z,6.45
2018-09-25T22:58:54.626Z,6.00
2018-09-25T23:01:28.898Z,5.83
2018-09-25T23:04:03.143Z,6.75
2018-09-25T23:06:37.233Z,6.28
2018-09-25T23:09:13.522Z,6.80
2018-09-25T23:11:48.021Z,6.97
2018-09-25T23:14:22.239Z,6.12
2018-09-25T23:16:56.450Z,6.08
2018-09-25T23:19:30.669Z,7.03
2018-09-25T23:22:04.814Z,6.08
2018-09-25T23:24:39.245Z,5.75
2018-09-25T23:27:13.517Z,6.87
2018-09-25T23:29:47.758Z,6.90
2018-09-25T23:32:21.965Z,6.72
2018-09-25T23:34:56.222Z,6.22
2018-09-25T23:37:30.355Z,6.37
2018-09-25T23:40:04.405Z,7.15
2018-09-25T23:42:40.523Z,5.83
2018-09-25T23:47:19.758Z,6.97
2018-09-25T23:50:08.845Z,6.65
2018-09-25T23:52:41.617Z,6.87
2018-09-25T23:55:14.618Z,6.15
2018-09-25T23:57:48.900Z,6.10
